Time;durP1;ratioP1;P1;durP2;ratioP2;P2;SDS_P1;SDS_P2;PMS_P1;PMS_P2;Temp;Humidity;BMP_temperature;BMP_pressure;BME280_temperature;BME280_humidity;BME280_pressure;Samples;Min_cycle;Max_cycle;Signal;HPM_P1;HPM_P2
2021/08/22 00:00:08;;;;;;;5.05;3.97;;;19.60;71.70;;;;;;5157298;27;20436;-74
2021/08/22 00:02:33;;;;;;;5.97;5.00;;;19.60;72.10;;;;;;5157337;27;20019;-75
2021/08/22 00:04:59;;;;;;;6.97;4.70;;;19.60;72.50;;;;;;5157367;27;20510;-74
2021/08/22 00:07:25;;;;;;;7.05;4.68;;;19.50;72.70;;;;;;5157448;27;20050;-75
2021/08/22 00:09:50;;;;;;;5.15;4.10;;;19.50;72.90;;;;;;5157557;27;20023;-75
2021/08/22 00:12:16;;;;;;;6.07;4.28;;;19.60;73.10;;;;;;5158248;27;20035;-76
2021/08/22 00:14:41;;;;;;;9.50;4.55;;;19.60;73.20;;;;;;5161025;27;20026;-75
2021/08/22 00:17:07;;;;;;;6.50;4.80;;;19.50;73.50;;;;;;5158247;27;20023;-75
2021/08/22 00:19:33;;;;;;;6.25;3.97;;;19.40;74.20;;;;;;5156766;27;20031;-75
2021/08/22 00:21:58;;;;;;;6.85;4.20;;;19.40;74.50;;;;;;5156589;27;20027;-75
2021/08/22 00:24:24;;;;;;;4.75;4.13;;;19.40;74.90;;;;;;5156733;27;20018;-75
2021/08/22 00:26:49;;;;;;;5.72;4.32;;;19.40;74.80;;;;;;5157026;27;20050;-75
2021/08/22 00:29:15;;;;;;;5.63;4.00;;;19.50;74.90;;;;;;5157158;27;20022;-75
2021/08/22 00:31:41;;;;;;;7.63;4.30;;;19.40;75.10;;;;;;5157160;27;20018;-75
2021/08/22 00:34:06;;;;;;;8.07;4.47;;;19.40;75.30;;;;;;5138178;27;20062;-75
2021/08/22 00:36:32;;;;;;;7.63;4.47;;;19.40;75.40;;;;;;5156804;27;20023;-73
2021/08/22 00:38:57;;;;;;;9.00;4.55;;;19.40;75.60;;;;;;5156649;27;20050;-73
2021/08/22 00:41:23;;;;;;;8.00;4.13;;;19.40;75.60;;;;;;5156605;27;20072;-73
2021/08/22 00:43:48;;;;;;;5.95;4.32;;;19.50;75.90;;;;;;5156662;27;20023;-73
2021/08/22 00:46:15;;;;;;;8.80;4.95;;;19.50;75.10;;;;;;5156604;27;20109;-73
2021/08/22 00:48:43;;;;;;;5.65;4.13;;;19.60;74.60;;;;;;5156510;27;20098;-73
2021/08/22 00:51:09;;;;;;;7.32;4.43;;;19.50;74.60;;;;;;5156584;27;20490;-73
2021/08/22 00:53:37;;;;;;;8.23;5.15;;;19.60;74.40;;;;;;5156281;27;20038;-73
2021/08/22 00:56:03;;;;;;;5.93;4.35;;;19.60;74.40;;;;;;5161879;27;20046;-73
2021/08/22 00:58:31;;;;;;;5.70;4.57;;;19.70;74.40;;;;;;5157117;27;20026;-73
2021/08/22 01:00:57;;;;;;;8.00;5.15;;;19.70;74.70;;;;;;5156302;27;20471;-72
2021/08/22 01:03:45;;;;;;;7.97;4.40;;;19.90;75.70;;;;;;5137570;27;20125;-73
2021/08/22 01:06:23;;;;;;;6.93;4.68;;;19.80;75.70;;;;;;5156213;27;20030;-73
2021/08/22 01:09:04;;;;;;;5.55;4.30;;;19.80;75.60;;;;;;5156070;27;20022;-73
2021/08/22 01:11:33;;;;;;;5.95;4.03;;;19.90;75.90;;;;;;5156047;27;20524;-73
2021/08/22 01:14:09;;;;;;;6.75;4.20;;;19.90;76.30;;;;;;5155888;27;20026;-73
2021/08/22 01:16:41;;;;;;;4.95;3.97;;;19.80;76.80;;;;;;5155996;27;20046;-74
2021/08/22 01:19:25;;;;;;;6.10;3.92;;;19.80;76.90;;;;;;5155757;27;20113;-73
2021/08/22 01:21:52;;;;;;;5.50;4.00;;;19.70;77.70;;;;;;5155879;27;20026;-73
2021/08/22 01:24:20;;;;;;;5.93;4.30;;;19.70;78.10;;;;;;5155720;27;20050;-73
2021/08/22 01:26:46;;;;;;;4.45;4.05;;;19.60;78.10;;;;;;5155720;27;20097;-73
2021/08/22 01:29:14;;;;;;;6.28;4.60;;;19.60;78.50;;;;;;5155683;27;20026;-73
2021/08/22 01:31:48;;;;;;;8.85;4.88;;;19.60;79.20;;;;;;5155223;27;20030;-72
2021/08/22 01:34:14;;;;;;;7.82;4.78;;;19.50;79.70;;;;;;5155579;27;20031;-73
2021/08/22 01:36:41;;;;;;;6.57;4.78;;;19.50;80.20;;;;;;5155738;27;20390;-73
2021/08/22 01:39:09;;;;;;;8.95;4.65;;;19.50;80.00;;;;;;5155490;27;20319;-73
2021/08/22 01:41:35;;;;;;;8.48;4.78;;;19.40;80.40;;;;;;5155554;27;20026;-73
2021/08/22 01:44:01;;;;;;;8.15;4.35;;;19.40;80.60;;;;;;5155395;27;20149;-73
2021/08/22 01:46:32;;;;;;;6.93;4.38;;;19.40;80.70;;;;;;5155332;27;20539;-73
2021/08/22 01:48:58;;;;;;;6.30;4.45;;;19.30;81.10;;;;;;5136786;27;20470;-73
2021/08/22 01:51:27;;;;;;;6.85;4.50;;;19.30;81.50;;;;;;5155206;27;20038;-73
2021/08/22 01:53:54;;;;;;;7.03;4.32;;;19.20;82.00;;;;;;5155048;27;20039;-75
2021/08/22 01:56:19;;;;;;;5.20;4.10;;;19.10;82.40;;;;;;5155185;27;20499;-73
2021/08/22 01:58:45;;;;;;;5.65;4.38;;;19.10;82.30;;;;;;5155129;27;20113;-72
2021/08/22 02:01:12;;;;;;;5.78;4.15;;;19.20;82.10;;;;;;5155027;27;20023;-72
2021/08/22 02:03:49;;;;;;;5.10;4.20;;;19.20;82.10;;;;;;5155140;27;20025;-75
2021/08/22 02:06:20;;;;;;;6.88;4.63;;;19.10;82.40;;;;;;5155099;27;20010;-75
2021/08/22 02:08:51;;;;;;;5.63;4.20;;;19.00;82.50;;;;;;5155247;27;20511;-74
2021/08/22 02:11:19;;;;;;;8.70;3.92;;;18.90;82.80;;;;;;5155070;27;20027;-72
2021/08/22 02:13:45;;;;;;;6.72;4.30;;;18.90;82.90;;;;;;5154947;27;20019;-73
2021/08/22 02:16:15;;;;;;;5.25;4.03;;;18.80;82.80;;;;;;5154848;27;20520;-74
2021/08/22 02:18:42;;;;;;;7.25;4.05;;;18.80;82.80;;;;;;5154882;27;20109;-74
2021/08/22 02:21:08;;;;;;;10.15;4.70;;;18.80;83.10;;;;;;5154722;27;20038;-72
2021/08/22 02:23:35;;;;;;;4.97;4.25;;;18.70;83.50;;;;;;5154972;27;20014;-73
2021/08/22 02:26:00;;;;;;;6.43;4.40;;;18.50;84.10;;;;;;5154727;27;20454;-73
2021/08/22 02:28:26;;;;;;;7.80;4.22;;;18.60;83.70;;;;;;5154695;27;20022;-74
2021/08/22 02:30:52;;;;;;;6.75;4.13;;;18.60;83.30;;;;;;5154713;27;20027;-73
2021/08/22 02:33:18;;;;;;;8.57;4.20;;;18.70;83.50;;;;;;5154562;27;20022;-72
2021/08/22 02:35:43;;;;;;;5.68;3.58;;;18.70;83.40;;;;;;5154632;27;20019;-75
2021/08/22 02:38:09;;;;;;;4.65;3.70;;;18.80;82.80;;;;;;5154662;27;20190;-72
2021/08/22 02:40:35;;;;;;;4.95;3.83;;;18.90;82.30;;;;;;5154496;27;20034;-73
2021/08/22 02:43:00;;;;;;;4.85;4.07;;;19.00;82.10;;;;;;5154573;27;20359;-74
2021/08/22 02:45:26;;;;;;;5.70;4.35;;;19.00;82.00;;;;;;5158880;27;20119;-74
2021/08/22 02:47:57;;;;;;;10.77;4.15;;;19.00;82.10;;;;;;5158851;27;20046;-74
2021/08/22 02:50:23;;;;;;;6.00;3.65;;;18.90;82.20;;;;;;5159046;27;20370;-74
2021/08/22 02:52:49;;;;;;;4.20;3.72;;;18.90;82.50;;;;;;5158682;27;20131;-73
2021/08/22 02:55:14;;;;;;;3.97;3.50;;;18.80;82.50;;;;;;5158760;27;20058;-73
2021/08/22 02:57:40;;;;;;;4.90;3.92;;;18.80;82.60;;;;;;5158581;27;20026;-73
2021/08/22 03:00:06;;;;;;;5.88;4.28;;;18.80;82.80;;;;;;5158547;27;20037;-73
2021/08/22 03:02:32;;;;;;;4.32;3.60;;;18.80;82.60;;;;;;5158052;27;20432;-73
2021/08/22 03:04:57;;;;;;;4.88;4.00;;;18.80;82.80;;;;;;5158541;27;20051;-74
2021/08/22 03:07:23;;;;;;;4.25;3.83;;;18.70;83.70;;;;;;5158481;27;20518;-74
2021/08/22 03:09:49;;;;;;;3.90;3.50;;;18.70;82.90;;;;;;5158518;27;20139;-73
2021/08/22 03:12:14;;;;;;;6.22;4.60;;;18.60;83.30;;;;;;5158357;27;20062;-74
2021/08/22 03:14:40;;;;;;;7.45;3.63;;;18.60;83.30;;;;;;5158340;27;20019;-74
2021/08/22 03:17:05;;;;;;;5.85;4.20;;;18.70;83.50;;;;;;5158189;27;20022;-74
2021/08/22 03:19:31;;;;;;;4.97;3.72;;;18.70;83.20;;;;;;5161223;27;20037;-74
2021/08/22 03:21:56;;;;;;;9.43;3.80;;;18.80;83.30;;;;;;5140860;27;20025;-73
2021/08/22 03:24:22;;;;;;;5.45;4.20;;;18.80;83.10;;;;;;5139578;27;20022;-74
2021/08/22 03:26:48;;;;;;;5.07;3.80;;;18.80;82.90;;;;;;5158054;27;20027;-74
2021/08/22 03:29:13;;;;;;;7.28;4.05;;;18.80;82.70;;;;;;5157971;27;20023;-74
2021/08/22 03:31:39;;;;;;;7.90;4.10;;;18.90;82.20;;;;;;5158024;27;20019;-74
2021/08/22 03:34:04;;;;;;;6.22;3.65;;;18.80;82.30;;;;;;5157869;27;20026;-74
2021/08/22 03:36:30;;;;;;;5.40;3.92;;;18.80;82.50;;;;;;5157887;27;20031;-74
2021/08/22 03:38:56;;;;;;;6.63;3.55;;;18.80;82.70;;;;;;5157791;27;20467;-73
2021/08/22 03:41:21;;;;;;;5.35;3.70;;;18.70;82.50;;;;;;5157717;27;20109;-73
2021/08/22 03:43:47;;;;;;;4.20;3.60;;;18.70;82.60;;;;;;5157833;27;20019;-73
2021/08/22 03:46:12;;;;;;;6.63;3.70;;;18.70;81.80;;;;;;5138978;27;20124;-74
2021/08/22 03:48:38;;;;;;;4.70;3.67;;;18.70;82.10;;;;;;5157657;27;20042;-74
2021/08/22 03:51:03;;;;;;;13.07;3.72;;;18.70;81.90;;;;;;5157606;27;20467;-74
2021/08/22 03:53:29;;;;;;;6.28;3.92;;;18.80;81.60;;;;;;5157313;27;20394;-73
2021/08/22 03:55:55;;;;;;;4.85;3.88;;;18.70;81.70;;;;;;5157273;27;20019;-73
2021/08/22 03:58:20;;;;;;;5.93;3.78;;;18.80;81.40;;;;;;5157470;27;20019;-74
2021/08/22 04:00:46;;;;;;;3.70;3.30;;;18.80;80.00;;;;;;5157246;27;20109;-73
2021/08/22 04:03:11;;;;;;;4.68;3.63;;;18.80;79.80;;;;;;5157282;27;20019;-73
2021/08/22 04:05:37;;;;;;;5.07;3.60;;;18.90;80.20;;;;;;5157321;27;20023;-74
2021/08/22 04:08:03;;;;;;;4.10;3.30;;;18.90;78.70;;;;;;5157260;27;20022;-74
2021/08/22 04:10:29;;;;;;;5.97;3.35;;;18.90;78.00;;;;;;5138586;27;20025;-74
2021/08/22 04:12:55;;;;;;;4.60;3.65;;;19.00;78.00;;;;;;5157190;27;20033;-74
2021/08/22 04:15:21;;;;;;;6.38;3.80;;;19.00;78.10;;;;;;5157078;27;20050;-74
2021/08/22 04:17:47;;;;;;;5.05;4.15;;;19.00;77.00;;;;;;5157144;27;20050;-74
2021/08/22 04:20:13;;;;;;;4.30;3.70;;;19.00;77.10;;;;;;5157016;27;20450;-74
2021/08/22 04:22:39;;;;;;;5.32;4.40;;;19.00;77.10;;;;;;5156933;27;20111;-73
2021/08/22 04:25:10;;;;;;;6.22;5.15;;;19.00;77.40;;;;;;5156875;27;20026;-73
2021/08/22 04:27:37;;;;;;;5.15;3.88;;;19.00;77.40;;;;;;5156727;27;20027;-73
2021/08/22 04:30:03;;;;;;;5.15;3.85;;;19.00;77.20;;;;;;5156768;27;20044;-73
2021/08/22 04:32:29;;;;;;;4.75;3.67;;;19.00;76.30;;;;;;5156660;27;20114;-73
2021/08/22 04:34:54;;;;;;;4.00;3.50;;;19.10;76.50;;;;;;5156786;27;20023;-73
2021/08/22 04:37:20;;;;;;;5.32;3.42;;;19.10;75.70;;;;;;5156519;27;20019;-74
2021/08/22 04:39:46;;;;;;;6.18;3.55;;;19.10;75.70;;;;;;5156525;27;20038;-73
2021/08/22 04:42:11;;;;;;;6.35;4.47;;;19.20;75.50;;;;;;5156573;27;20041;-74
2021/08/22 04:44:37;;;;;;;5.35;3.88;;;19.20;75.60;;;;;;5156572;27;20115;-74
2021/08/22 04:47:05;;;;;;;4.22;3.65;;;19.10;75.50;;;;;;5156536;27;20019;-73
2021/08/22 04:49:31;;;;;;;6.65;3.65;;;19.10;76.00;;;;;;5156430;27;20023;-74
2021/08/22 04:51:57;;;;;;;5.05;3.75;;;19.10;76.20;;;;;;5156242;27;20023;-73
2021/08/22 04:54:25;;;;;;;4.57;3.28;;;19.10;75.80;;;;;;5156357;27;20026;-73
2021/08/22 04:56:50;;;;;;;4.75;3.65;;;19.00;75.80;;;;;;5156427;27;20026;-73
2021/08/22 04:59:16;;;;;;;6.68;4.18;;;19.00;75.90;;;;;;5137589;27;20029;-73
2021/08/22 05:01:42;;;;;;;6.85;3.85;;;19.00;75.60;;;;;;5156145;27;20019;-74
2021/08/22 05:04:07;;;;;;;3.85;3.30;;;18.90;76.00;;;;;;5156256;27;20029;-74
2021/08/22 05:06:33;;;;;;;5.18;3.80;;;19.00;75.90;;;;;;5155513;27;20038;-74
2021/08/22 05:08:58;;;;;;;4.22;3.40;;;18.90;77.00;;;;;;5155968;27;20022;-74
2021/08/22 05:11:24;;;;;;;6.65;3.55;;;18.90;76.20;;;;;;5155973;27;20022;-73
2021/08/22 05:13:50;;;;;;;6.53;3.83;;;18.90;76.10;;;;;;5156014;27;20031;-73
2021/08/22 05:16:15;;;;;;;5.78;3.90;;;18.90;75.50;;;;;;5156008;27;20093;-73
2021/08/22 05:18:41;;;;;;;4.78;3.55;;;18.90;76.00;;;;;;5155921;27;20056;-73
2021/08/22 05:21:06;;;;;;;3.63;3.28;;;19.00;76.00;;;;;;5155890;27;20496;-73
2021/08/22 05:23:32;;;;;;;4.05;3.15;;;19.10;75.70;;;;;;5155805;27;20021;-73
2021/08/22 05:25:57;;;;;;;4.82;3.70;;;19.10;75.40;;;;;;5157950;27;20050;-74
2021/08/22 05:28:24;;;;;;;4.88;3.80;;;19.20;76.20;;;;;;5160953;27;20027;-73
2021/08/22 05:30:50;;;;;;;4.38;3.70;;;19.20;75.30;;;;;;5159482;27;20216;-73
2021/08/22 05:33:15;;;;;;;8.52;4.20;;;19.20;74.40;;;;;;5156412;27;20075;-73
2021/08/22 05:35:41;;;;;;;5.10;3.83;;;19.30;73.90;;;;;;5155622;27;20021;-73
2021/08/22 05:38:07;;;;;;;4.25;3.42;;;19.40;73.50;;;;;;5155494;27;20042;-74
2021/08/22 05:40:34;;;;;;;5.50;3.90;;;19.40;73.70;;;;;;5155407;27;20041;-73
2021/08/22 05:42:59;;;;;;;4.30;3.67;;;19.50;73.70;;;;;;5155535;27;20019;-74
2021/08/22 05:45:25;;;;;;;5.38;4.00;;;19.50;73.80;;;;;;5155711;27;20039;-74
2021/08/22 05:47:50;;;;;;;5.63;4.22;;;19.50;74.00;;;;;;5156441;27;20063;-74
2021/08/22 05:50:16;;;;;;;6.85;4.28;;;19.50;74.20;;;;;;5154898;27;20023;-73
2021/08/22 05:52:41;;;;;;;4.80;3.90;;;19.50;74.10;;;;;;5155485;27;20031;-74
2021/08/22 05:55:09;;;;;;;5.75;4.38;;;19.50;74.20;;;;;;5155231;27;20424;-74
2021/08/22 05:57:35;;;;;;;4.13;3.55;;;19.50;74.20;;;;;;5155279;27;20023;-74
2021/08/22 06:00:01;;;;;;;6.70;3.97;;;19.70;74.30;;;;;;5155103;27;20566;-74
2021/08/22 06:02:27;;;;;;;5.55;4.03;;;19.70;74.00;;;;;;5136716;27;20027;-74
2021/08/22 06:04:52;;;;;;;7.03;4.50;;;19.70;73.60;;;;;;5155096;27;20026;-74
2021/08/22 06:07:21;;;;;;;9.20;4.60;;;19.80;73.30;;;;;;5155081;27;20463;-74
2021/08/22 06:09:51;;;;;;;5.38;3.95;;;19.90;72.40;;;;;;5154982;27;20031;-74
2021/08/22 06:12:18;;;;;;;4.25;3.85;;;20.00;72.20;;;;;;5155023;27;20491;-74
2021/08/22 06:14:44;;;;;;;4.93;4.00;;;20.00;72.50;;;;;;5154912;27;20034;-74
2021/08/22 06:17:10;;;;;;;4.50;3.75;;;20.10;72.40;;;;;;5154838;27;20102;-74
2021/08/22 06:19:35;;;;;;;4.65;3.45;;;20.10;72.10;;;;;;5154778;27;20035;-74
2021/08/22 06:22:01;;;;;;;4.65;4.05;;;20.20;71.80;;;;;;5154658;27;20027;-74
2021/08/22 06:24:27;;;;;;;5.65;3.70;;;20.20;70.40;;;;;;5154813;27;20097;-74
2021/08/22 06:26:52;;;;;;;4.45;3.85;;;20.30;70.70;;;;;;5154626;27;20046;-74
2021/08/22 06:29:18;;;;;;;4.07;3.42;;;20.30;71.50;;;;;;5154591;27;20030;-74
2021/08/22 06:31:43;;;;;;;4.90;3.90;;;20.40;70.50;;;;;;5155014;27;20026;-74
2021/08/22 06:34:10;;;;;;;6.60;4.38;;;20.50;70.30;;;;;;5154296;27;20475;-73
2021/08/22 06:36:39;;;;;;;7.10;4.00;;;20.50;70.30;;;;;;5154524;27;20413;-73
2021/08/22 06:39:06;;;;;;;6.28;4.18;;;20.50;70.20;;;;;;5154467;27;20019;-74
2021/08/22 06:41:31;;;;;;;5.35;4.15;;;20.60;69.90;;;;;;5155021;27;20482;-74
2021/08/22 06:43:57;;;;;;;4.10;3.70;;;20.70;69.50;;;;;;5155175;27;20019;-73
2021/08/22 06:46:24;;;;;;;4.28;3.88;;;20.60;68.60;;;;;;5154805;27;20030;-73
2021/08/22 06:48:49;;;;;;;9.00;3.95;;;20.70;67.10;;;;;;5154349;27;20532;-74
2021/08/22 06:51:15;;;;;;;5.15;3.78;;;20.60;66.50;;;;;;5154622;27;20042;-73
2021/08/22 06:53:40;;;;;;;4.78;3.90;;;20.60;67.10;;;;;;5135595;27;20042;-74
2021/08/22 06:56:06;;;;;;;4.32;3.63;;;20.60;67.30;;;;;;5153589;27;20111;-73
2021/08/22 06:58:31;;;;;;;4.63;3.63;;;20.70;67.40;;;;;;5154191;27;20374;-72
2021/08/22 07:00:57;;;;;;;5.03;3.72;;;20.70;67.40;;;;;;5155444;27;20109;-74
2021/08/22 07:03:23;;;;;;;4.95;3.60;;;20.60;67.50;;;;;;5155479;27;20103;-74
2021/08/22 07:05:48;;;;;;;5.32;3.83;;;20.70;67.50;;;;;;5154561;27;20019;-73
2021/08/22 07:08:14;;;;;;;5.03;3.70;;;20.60;67.70;;;;;;5154528;27;20015;-73
2021/08/22 07:10:40;;;;;;;6.10;4.10;;;20.60;67.20;;;;;;5137271;27;20023;-73
2021/08/22 07:13:06;;;;;;;5.95;3.90;;;20.60;68.60;;;;;;5153469;27;20026;-75
2021/08/22 07:15:31;;;;;;;4.82;3.95;;;20.70;68.50;;;;;;5152711;27;20079;-74
2021/08/22 07:17:57;;;;;;;7.78;4.38;;;20.90;68.70;;;;;;5153394;27;20098;-73
2021/08/22 07:20:23;;;;;;;4.50;3.25;;;21.00;67.90;;;;;;5153632;27;20031;-73
2021/08/22 07:22:48;;;;;;;4.35;3.60;;;21.10;67.10;;;;;;5154089;27;20098;-73
2021/08/22 07:25:14;;;;;;;6.50;4.13;;;21.10;66.90;;;;;;5154272;27;20110;-75
2021/08/22 07:27:39;;;;;;;7.38;4.28;;;21.10;67.00;;;;;;5154158;27;20048;-73
2021/08/22 07:30:05;;;;;;;5.20;3.38;;;21.10;66.70;;;;;;5155716;27;20023;-74
2021/08/22 07:32:31;;;;;;;4.63;3.60;;;21.20;66.40;;;;;;5158067;27;20026;-75
2021/08/22 07:34:57;;;;;;;6.07;3.72;;;21.20;66.10;;;;;;5157987;27;20051;-74
2021/08/22 07:37:22;;;;;;;4.82;3.53;;;21.30;65.00;;;;;;5157888;27;20023;-74
2021/08/22 07:39:48;;;;;;;7.28;4.47;;;21.30;65.40;;;;;;5157817;27;20376;-76
2021/08/22 07:42:14;;;;;;;5.85;3.75;;;21.20;66.30;;;;;;5157964;27;20015;-74
2021/08/22 07:44:40;;;;;;;4.35;3.60;;;21.30;65.40;;;;;;5157995;27;20583;-74
2021/08/22 07:47:05;;;;;;;5.15;3.30;;;21.40;65.20;;;;;;5157861;27;20023;-75
2021/08/22 07:49:31;;;;;;;4.82;3.80;;;21.40;65.20;;;;;;5157872;27;20475;-75
2021/08/22 07:51:56;;;;;;;4.60;3.72;;;21.60;64.70;;;;;;5157529;27;20462;-74
2021/08/22 07:54:22;;;;;;;4.45;3.70;;;21.60;64.80;;;;;;5157667;27;20525;-75
2021/08/22 07:56:47;;;;;;;4.63;3.70;;;21.50;65.90;;;;;;5157547;27;20031;-74
2021/08/22 07:59:13;;;;;;;4.05;3.60;;;21.70;65.50;;;;;;5157498;27;20030;-75
2021/08/22 08:01:39;;;;;;;4.10;3.55;;;21.90;64.90;;;;;;5157558;27;20027;-75
2021/08/22 08:04:04;;;;;;;4.68;3.45;;;22.00;63.60;;;;;;5157367;27;20065;-74
2021/08/22 08:06:30;;;;;;;4.90;3.50;;;22.10;63.50;;;;;;5157420;27;20027;-74
2021/08/22 08:08:55;;;;;;;5.43;3.38;;;22.10;63.60;;;;;;5157174;27;20025;-74
2021/08/22 08:11:21;;;;;;;3.42;3.10;;;22.00;62.70;;;;;;5157324;27;20114;-75
2021/08/22 08:13:46;;;;;;;5.05;4.40;;;21.90;63.20;;;;;;5157281;27;20015;-75
2021/08/22 08:16:12;;;;;;;7.85;3.72;;;21.90;63.40;;;;;;5157162;27;20364;-73
2021/08/22 08:18:38;;;;;;;3.45;3.13;;;21.70;63.50;;;;;;5157198;27;20463;-73
2021/08/22 08:21:03;;;;;;;4.88;3.67;;;21.70;63.90;;;;;;5157068;27;20053;-73
2021/08/22 08:23:30;;;;;;;4.07;3.67;;;21.70;63.70;;;;;;5157711;27;20018;-74
2021/08/22 08:25:56;;;;;;;6.63;3.55;;;21.40;63.70;;;;;;5157080;27;20033;-73
2021/08/22 08:28:21;;;;;;;4.78;3.33;;;21.40;64.30;;;;;;5156946;27;20022;-73
2021/08/22 08:30:47;;;;;;;4.57;3.53;;;21.40;64.70;;;;;;5156910;27;20131;-73
2021/08/22 08:33:13;;;;;;;4.82;3.55;;;21.30;65.90;;;;;;5159270;27;20035;-73
2021/08/22 08:35:38;;;;;;;7.10;4.45;;;21.10;66.10;;;;;;5167844;27;20078;-73
2021/08/22 08:38:04;;;;;;;4.03;3.53;;;21.10;66.50;;;;;;5160215;27;20483;-73
2021/08/22 08:40:30;;;;;;;6.28;3.67;;;21.10;66.80;;;;;;5156122;27;20083;-73
2021/08/22 08:42:57;;;;;;;5.18;3.88;;;21.00;67.10;;;;;;5155871;27;20471;-74
2021/08/22 08:45:47;;;;;;;4.60;3.35;;;21.00;67.70;;;;;;5156586;27;20167;-74
2021/08/22 08:48:21;;;;;;;4.35;3.38;;;21.10;67.70;;;;;;5156241;27;20487;-74
2021/08/22 08:50:52;;;;;;;3.70;3.30;;;21.10;67.60;;;;;;5156183;27;20022;-74
2021/08/22 08:53:23;;;;;;;5.45;4.32;;;21.10;68.10;;;;;;5155920;27;20049;-74
2021/08/22 08:56:06;;;;;;;3.80;3.40;;;21.10;68.70;;;;;;5156239;27;20474;-73
2021/08/22 08:58:31;;;;;;;4.38;3.80;;;21.00;67.70;;;;;;5155989;27;20119;-74
2021/08/22 09:00:57;;;;;;;5.47;3.78;;;20.90;68.90;;;;;;5137354;27;20121;-73
2021/08/22 09:03:24;;;;;;;6.63;4.22;;;20.90;69.40;;;;;;5137677;27;20018;-73
2021/08/22 09:06:10;;;;;;;5.13;3.63;;;20.90;69.60;;;;;;5156109;27;20033;-74
2021/08/22 09:09:13;;;;;;;7.25;4.55;;;20.80;69.60;;;;;;5156086;27;20046;-74
2021/08/22 09:12:11;;;;;;;6.38;4.22;;;20.90;69.80;;;;;;5156038;27;20045;-74
2021/08/22 09:14:58;;;;;;;4.72;3.38;;;21.00;70.10;;;;;;5156115;27;20025;-73
2021/08/22 09:17:50;;;;;;;4.85;3.75;;;21.10;69.30;;;;;;5155800;27;20022;-73
2021/08/22 09:20:47;;;;;;;5.05;4.55;;;21.10;69.80;;;;;;5155515;27;20035;-74
2021/08/22 09:23:18;;;;;;;;;;;21.20;69.50;;;;;;5152851;27;20132;-74
2021/08/22 09:26:21;;;;;;;5.30;3.85;;;21.30;69.40;;;;;;5155528;27;19955;-74
2021/08/22 09:29:24;;;;;;;4.85;4.07;;;21.20;69.80;;;;;;5155608;27;20382;-73
2021/08/22 09:32:17;;;;;;;6.72;4.20;;;21.10;70.60;;;;;;5155660;27;20102;-73
2021/08/22 09:35:10;;;;;;;5.43;4.43;;;21.00;71.10;;;;;;5155590;27;20077;-72
2021/08/22 09:38:02;;;;;;;4.30;3.88;;;20.90;71.50;;;;;;5155415;27;20022;-73
2021/08/22 09:41:06;;;;;;;7.13;3.75;;;20.80;71.60;;;;;;5089733;27;20053;-73
2021/08/22 09:44:09;;;;;;;5.68;4.13;;;20.90;71.90;;;;;;5155440;27;20033;-73
2021/08/22 09:47:05;;;;;;;6.85;4.05;;;21.00;71.90;;;;;;5155365;27;20033;-73
2021/08/22 09:50:08;;;;;;;4.85;3.83;;;21.00;71.90;;;;;;5155507;27;20031;-73
2021/08/22 09:52:55;;;;;;;6.97;4.45;;;21.10;72.20;;;;;;5154720;27;20074;-73
2021/08/22 09:55:39;;;;;;;5.90;4.68;;;21.00;72.10;;;;;;5155248;27;20071;-73
2021/08/22 09:58:43;;;;;;;4.25;3.70;;;21.00;72.40;;;;;;5154971;27;20014;-73
2021/08/22 10:01:36;;;;;;;5.70;4.30;;;20.90;72.70;;;;;;5155130;27;20086;-73
2021/08/22 10:04:27;;;;;;;5.95;4.25;;;21.10;72.40;;;;;;5155291;27;20026;-73
2021/08/22 10:06:55;;;;;;;6.70;4.05;;;21.20;71.80;;;;;;5153593;27;20392;-73
2021/08/22 10:09:25;;;;;;;5.22;4.15;;;21.20;71.70;;;;;;5154879;27;20022;-73
2021/08/22 10:11:53;;;;;;;4.88;3.92;;;21.20;71.80;;;;;;5136163;27;20031;-73
2021/08/22 10:14:19;;;;;;;6.78;4.30;;;21.20;71.70;;;;;;5154872;27;20027;-73
2021/08/22 10:16:49;;;;;;;5.22;4.05;;;21.30;71.40;;;;;;5154642;27;20522;-73
2021/08/22 10:19:14;;;;;;;5.47;3.58;;;21.50;70.60;;;;;;5154577;27;20475;-73
2021/08/22 10:21:40;;;;;;;3.70;3.28;;;21.70;69.90;;;;;;5136091;27;20070;-74
2021/08/22 10:24:12;;;;;;;6.85;3.97;;;21.80;70.20;;;;;;5154764;27;20026;-73
2021/08/22 10:26:57;;;;;;;4.95;3.65;;;21.90;69.10;;;;;;5154732;27;20026;-73
2021/08/22 10:29:33;;;;;;;3.67;3.33;;;21.90;68.40;;;;;;5154518;27;20083;-73
2021/08/22 10:31:59;;;;;;;5.63;3.70;;;22.00;67.70;;;;;;5154571;27;20050;-73
2021/08/22 10:34:29;;;;;;;4.53;3.95;;;22.00;67.50;;;;;;5154543;27;20539;-74
2021/08/22 10:36:55;;;;;;;4.15;3.55;;;22.10;67.40;;;;;;5154459;27;20463;-74
2021/08/22 10:39:26;;;;;;;5.47;4.05;;;22.10;67.60;;;;;;5154400;27;20022;-74
2021/08/22 10:41:52;;;;;;;5.68;3.75;;;22.10;67.00;;;;;;5154491;27;20019;-74
2021/08/22 10:44:35;;;;;;;4.70;4.20;;;22.10;67.30;;;;;;5154535;27;20110;-73
2021/08/22 10:47:08;;;;;;;4.80;3.90;;;21.90;68.30;;;;;;5155130;27;20083;-75
2021/08/22 10:49:52;;;;;;;7.07;4.07;;;21.90;68.10;;;;;;5154987;27;20416;-74
2021/08/22 10:52:34;;;;;;;5.20;4.28;;;21.80;66.80;;;;;;5154318;27;20134;-74
2021/08/22 10:55:06;;;;;;;5.40;4.22;;;21.70;68.20;;;;;;5154551;27;20378;-74
2021/08/22 10:57:44;;;;;;;8.80;4.55;;;21.70;68.10;;;;;;5155268;27;20050;-75
2021/08/22 11:00:26;;;;;;;5.20;4.28;;;21.70;66.90;;;;;;5159613;27;20035;-74
2021/08/22 11:03:02;;;;;;;5.20;4.15;;;21.50;65.80;;;;;;5158514;27;20022;-74
2021/08/22 11:05:33;;;;;;;5.38;4.47;;;21.40;65.50;;;;;;5158332;27;20022;-74
2021/08/22 11:08:32;;;;;;;6.97;4.07;;;21.60;65.00;;;;;;5159962;27;20056;-74
2021/08/22 11:10:59;;;;;;;4.72;4.15;;;21.50;63.90;;;;;;5140152;27;20095;-75
2021/08/22 11:13:27;;;;;;;5.85;4.75;;;21.50;64.20;;;;;;5158604;27;20044;-75
2021/08/22 11:15:52;;;;;;;5.90;4.68;;;21.60;64.40;;;;;;5159506;27;20027;-75
2021/08/22 11:18:19;;;;;;;7.85;5.00;;;21.60;64.30;;;;;;5158256;27;20026;-75
2021/08/22 11:20:45;;;;;;;6.22;4.50;;;21.50;63.80;;;;;;5158181;27;20475;-75
2021/08/22 11:23:18;;;;;;;5.97;4.88;;;21.40;64.50;;;;;;5158947;27;20050;-74
2021/08/22 11:25:57;;;;;;;5.80;4.53;;;21.40;64.20;;;;;;5158169;27;20355;-74
2021/08/22 11:28:23;;;;;;;7.05;4.97;;;21.60;63.30;;;;;;5158113;27;20412;-74
2021/08/22 11:30:49;;;;;;;5.90;4.55;;;21.50;62.60;;;;;;5158149;27;20059;-74
2021/08/22 11:33:14;;;;;;;6.07;4.65;;;21.60;62.90;;;;;;5158118;27;20030;-74
2021/08/22 11:35:46;;;;;;;7.32;4.32;;;21.60;62.70;;;;;;5158173;27;20076;-74
2021/08/22 11:38:13;;;;;;;5.82;4.72;;;21.60;63.00;;;;;;5157925;27;20034;-74
2021/08/22 11:40:39;;;;;;;5.55;4.50;;;21.60;62.90;;;;;;5157878;27;20038;-74
2021/08/22 11:43:10;;;;;;;5.88;4.35;;;21.80;62.70;;;;;;5157877;27;20383;-74
2021/08/22 11:45:37;;;;;;;6.38;4.45;;;21.80;62.30;;;;;;5157896;27;20091;-74
2021/08/22 11:48:04;;;;;;;7.38;4.68;;;21.70;62.60;;;;;;5158130;27;20148;-73
2021/08/22 11:50:32;;;;;;;6.03;4.63;;;21.60;62.90;;;;;;5157814;27;20079;-74
2021/08/22 11:53:02;;;;;;;4.72;4.22;;;21.60;62.30;;;;;;5157561;27;20513;-75
2021/08/22 11:55:33;;;;;;;4.47;3.80;;;21.70;62.20;;;;;;5157704;27;20022;-75
2021/08/22 11:58:15;;;;;;;5.28;4.10;;;21.80;62.60;;;;;;5157547;27;20026;-73
2021/08/22 12:00:47;;;;;;;7.82;4.80;;;21.80;63.20;;;;;;5157459;27;20506;-76
2021/08/22 12:03:16;;;;;;;4.55;3.95;;;21.80;63.20;;;;;;5157534;27;20023;-75
2021/08/22 12:05:55;;;;;;;5.03;3.88;;;21.70;62.50;;;;;;5157331;27;20023;-73
2021/08/22 12:08:22;;;;;;;3.78;3.30;;;21.60;63.10;;;;;;5137800;27;20022;-74
2021/08/22 12:10:48;;;;;;;4.07;2.80;;;21.60;62.90;;;;;;5164334;27;20071;-75
2021/08/22 12:13:21;;;;;;;3.65;2.85;;;21.50;62.60;;;;;;5163547;27;20027;-74
2021/08/22 12:15:49;;;;;;;4.93;3.63;;;21.40;63.40;;;;;;5157137;27;20027;-74
2021/08/22 12:18:22;;;;;;;3.85;2.67;;;21.20;63.40;;;;;;5157224;27;20023;-75
2021/08/22 12:20:53;;;;;;;3.05;2.60;;;21.10;63.50;;;;;;5157070;27;20035;-74
2021/08/22 12:23:32;;;;;;;4.72;2.90;;;21.20;63.80;;;;;;5157227;27;20375;-73
2021/08/22 12:26:19;;;;;;;3.20;2.42;;;21.20;65.00;;;;;;5138453;27;20027;-74
2021/08/22 12:28:44;;;;;;;3.35;2.60;;;21.20;64.20;;;;;;5156922;27;20102;-73
2021/08/22 12:31:12;;;;;;;3.15;2.53;;;21.20;64.50;;;;;;5156909;27;20055;-73
2021/08/22 12:33:40;;;;;;;2.65;2.17;;;21.20;64.40;;;;;;5156994;27;20545;-72
2021/08/22 12:36:14;;;;;;;3.53;2.20;;;21.20;63.60;;;;;;5156892;27;20026;-72
2021/08/22 12:38:46;;;;;;;2.60;2.15;;;21.20;63.40;;;;;;5138328;27;20023;-73
2021/08/22 12:41:43;;;;;;;4.35;2.35;;;21.10;63.80;;;;;;5156535;27;20111;-73
2021/08/22 12:44:11;;;;;;;2.45;2.20;;;21.10;63.50;;;;;;5156947;27;20019;-72
2021/08/22 12:46:38;;;;;;;2.42;2.00;;;21.20;63.40;;;;;;5156670;27;20034;-72
2021/08/22 12:49:06;;;;;;;3.42;2.05;;;21.20;63.60;;;;;;5156495;27;20019;-72
2021/08/22 12:51:33;;;;;;;5.30;2.30;;;21.10;62.70;;;;;;5156608;27;20542;-73
2021/08/22 12:53:58;;;;;;;3.10;2.45;;;21.20;62.40;;;;;;5156565;27;20050;-73
2021/08/22 12:56:24;;;;;;;3.47;2.30;;;21.20;62.50;;;;;;5156296;27;20030;-72
2021/08/22 12:58:52;;;;;;;4.32;2.13;;;21.30;61.70;;;;;;5156333;27;20061;-73